sensor_id;sensor_type;location;lat;lon;timestamp;pressure;altitude;pressure_sealevel;temperature;humidity
66206;BME280;53009;52.490;4.976;2022-09-09T00:03:49;100800;;;16.7;11.2
66206;BME280;53009;52.490;4.976;2022-09-09T00:08:51;100800;;;16.7;11.1
66206;BME280;53009;52.490;4.976;2022-09-09T00:13:48;100800;;;16.6;11.2
66206;BME280;53009;52.490;4.976;2022-09-09T00:18:50;100800;;;16.6;11.1
66206;BME280;53009;52.490;4.976;2022-09-09T00:23:48;100800;;;16.6;11.1
66206;BME280;53009;52.490;4.976;2022-09-09T00:28:48;100800;;;16.6;11
66206;BME280;53009;52.490;4.976;2022-09-09T00:33:47;100800;;;16.5;11.2
66206;BME280;53009;52.490;4.976;2022-09-09T00:38:48;100800;;;16.5;11.2
66206;BME280;53009;52.490;4.976;2022-09-09T00:43:51;100800;;;16.5;11.2
66206;BME280;53009;52.490;4.976;2022-09-09T00:48:50;100800;;;16.5;11.2
66206;BME280;53009;52.490;4.976;2022-09-09T00:53:56;100800;;;16.4;11.3
66206;BME280;53009;52.490;4.976;2022-09-09T00:58:49;100800;;;16.4;11.3
66206;BME280;53009;52.490;4.976;2022-09-09T01:03:49;100800;;;16.4;11.3
66206;BME280;53009;52.490;4.976;2022-09-09T01:08:53;100800;;;16.4;11.4
66206;BME280;53009;52.490;4.976;2022-09-09T01:13:49;100800;;;16.3;11.4
66206;BME280;53009;52.490;4.976;2022-09-09T01:18:48;100800;;;16.3;11.5
66206;BME280;53009;52.490;4.976;2022-09-09T01:23:53;100800;;;16.3;11.4
66206;BME280;53009;52.490;4.976;2022-09-09T01:28:48;100800;;;16.3;11.7
66206;BME280;53009;52.490;4.976;2022-09-09T01:33:48;100800;;;16.2;11.6
66206;BME280;53009;52.490;4.976;2022-09-09T01:38:47;100800;;;16.2;11.8
66206;BME280;53009;52.490;4.976;2022-09-09T01:43:47;100800;;;16.1;11.9
66206;BME280;53009;52.490;4.976;2022-09-09T01:48:48;100800;;;16.1;11.9
66206;BME280;53009;52.490;4.976;2022-09-09T01:53:47;100800;;;16.1;11.9
66206;BME280;53009;52.490;4.976;2022-09-09T01:58:52;100800;;;16;12
66206;BME280;53009;52.490;4.976;2022-09-09T02:03:50;100700;;;16;12.1
66206;BME280;53009;52.490;4.976;2022-09-09T02:08:48;100800;;;15.9;12.3
66206;BME280;53009;52.490;4.976;2022-09-09T02:13:48;100800;;;15.9;12.2
66206;BME280;53009;52.490;4.976;2022-09-09T02:18:48;100700;;;15.9;12.3
66206;BME280;53009;52.490;4.976;2022-09-09T02:23:48;100700;;;15.9;12.3
66206;BME280;53009;52.490;4.976;2022-09-09T02:28:48;100700;;;15.8;12.4
66206;BME280;53009;52.490;4.976;2022-09-09T02:33:49;100700;;;15.7;12.4
66206;BME280;53009;52.490;4.976;2022-09-09T02:38:47;100700;;;15.8;12.6
66206;BME280;53009;52.490;4.976;2022-09-09T02:43:47;100700;;;15.7;12.4
66206;BME280;53009;52.490;4.976;2022-09-09T02:48:51;100700;;;15.7;12.5
66206;BME280;53009;52.490;4.976;2022-09-09T02:53:48;100700;;;15.8;12.5
66206;BME280;53009;52.490;4.976;2022-09-09T02:58:48;100700;;;15.8;12.4
66206;BME280;53009;52.490;4.976;2022-09-09T03:03:47;100700;;;15.8;12.5
66206;BME280;53009;52.490;4.976;2022-09-09T03:08:48;100700;;;15.8;12.5
66206;BME280;53009;52.490;4.976;2022-09-09T03:13:48;100700;;;15.7;12.3
66206;BME280;53009;52.490;4.976;2022-09-09T03:18:47;100700;;;15.6;12.2
66206;BME280;53009;52.490;4.976;2022-09-09T03:23:47;100700;;;15.6;12.3
66206;BME280;53009;52.490;4.976;2022-09-09T03:29:14;100700;;;15.5;12.3
66206;BME280;53009;52.490;4.976;2022-09-09T03:30:08;100700;;;15.5;12.4
66206;BME280;53009;52.490;4.976;2022-09-09T03:32:55;100700;;;15.5;12.5
66206;BME280;53009;52.490;4.976;2022-09-09T03:34:17;100700;;;15.5;12.5
66206;BME280;53009;52.490;4.976;2022-09-09T03:36:28;100700;;;15.4;12.6
66206;BME280;53009;52.490;4.976;2022-09-09T03:41:28;100700;;;15.4;12.8
66206;BME280;53009;52.490;4.976;2022-09-09T03:42:38;100700;;;15.4;12.9
66206;BME280;53009;52.490;4.976;2022-09-09T03:46:48;100700;;;15.4;13
66206;BME280;53009;52.490;4.976;2022-09-09T03:47:53;100700;;;15.4;12.9
66206;BME280;53009;52.490;4.976;2022-09-09T03:48:52;100700;;;15.3;12.9
66206;BME280;53009;52.490;4.976;2022-09-09T03:53:52;100700;;;15.4;12.9
66206;BME280;53009;52.490;4.976;2022-09-09T03:54:54;100700;;;15.3;12.9
66206;BME280;53009;52.490;4.976;2022-09-09T03:57:51;100700;;;15.3;13
66206;BME280;53009;52.490;4.976;2022-09-09T04:02:02;100700;;;15.3;12.9
66206;BME280;53009;52.490;4.976;2022-09-09T04:06:28;100700;;;15.3;13
66206;BME280;53009;52.490;4.976;2022-09-09T04:08:38;100700;;;15.3;13
66206;BME280;53009;52.490;4.976;2022-09-09T04:10:40;100700;;;15.3;12.9
66206;BME280;53009;52.490;4.976;2022-09-09T04:14:51;100700;;;15.3;13
66206;BME280;53009;52.490;4.976;2022-09-09T04:15:41;100700;;;15.3;13
66206;BME280;53009;52.490;4.976;2022-09-09T04:17:51;100700;;;15.3;12.9
66206;BME280;53009;52.490;4.976;2022-09-09T04:22:51;100700;;;15.3;13.1
66206;BME280;53009;52.490;4.976;2022-09-09T04:24:25;100700;;;15.3;13
66206;BME280;53009;52.490;4.976;2022-09-09T04:26:43;100700;;;15.3;13.1
66206;BME280;53009;52.490;4.976;2022-09-09T04:31:43;100700;;;15.2;13.3
66206;BME280;53009;52.490;4.976;2022-09-09T04:34:13;100700;;;15.2;13.2
66206;BME280;53009;52.490;4.976;2022-09-09T04:36:08;100700;;;15.2;13.3
66206;BME280;53009;52.490;4.976;2022-09-09T04:38:03;100700;;;15.3;13.6
66206;BME280;53009;52.490;4.976;2022-09-09T04:39:01;100700;;;15.2;13.5
66206;BME280;53009;52.490;4.976;2022-09-09T04:40:15;100700;;;15.3;13.5
66206;BME280;53009;52.490;4.976;2022-09-09T04:45:15;100700;;;15.3;13.6
66206;BME280;53009;52.490;4.976;2022-09-09T04:47:37;100700;;;15.2;13.4
66206;BME280;53009;52.490;4.976;2022-09-09T04:52:03;100700;;;15.2;13.6
66206;BME280;53009;52.490;4.976;2022-09-09T04:53:09;100700;;;15.2;13.6
66206;BME280;53009;52.490;4.976;2022-09-09T04:58:08;100700;;;15.2;13.5
66206;BME280;53009;52.490;4.976;2022-09-09T04:59:27;100700;;;15.2;13.6
66206;BME280;53009;52.490;4.976;2022-09-09T05:04:27;100700;;;15.2;13.6
66206;BME280;53009;52.490;4.976;2022-09-09T05:05:08;100700;;;15.1;13.6
66206;BME280;53009;52.490;4.976;2022-09-09T05:06:28;100700;;;15.2;13.6
66206;BME280;53009;52.490;4.976;2022-09-09T05:07:34;100700;;;15.2;13.5
66206;BME280;53009;52.490;4.976;2022-09-09T05:10:56;100700;;;15.1;13.4
66206;BME280;53009;52.490;4.976;2022-09-09T05:15:06;100700;;;15.1;13.6
66206;BME280;53009;52.490;4.976;2022-09-09T05:17:09;100700;;;15.1;13.5
66206;BME280;53009;52.490;4.976;2022-09-09T05:21:18;100700;;;15.1;13.5
66206;BME280;53009;52.490;4.976;2022-09-09T05:22:18;100700;;;15.1;13.5
66206;BME280;53009;52.490;4.976;2022-09-09T05:23:22;100700;;;15.1;13.5
66206;BME280;53009;52.490;4.976;2022-09-09T05:27:41;100700;;;15.1;13.4
66206;BME280;53009;52.490;4.976;2022-09-09T05:28:55;100700;;;15.1;13.5
66206;BME280;53009;52.490;4.976;2022-09-09T05:30:58;100700;;;15.1;13.4
66206;BME280;53009;52.490;4.976;2022-09-09T05:31:30;100700;;;15.1;13.5
66206;BME280;53009;52.490;4.976;2022-09-09T05:35:33;100700;;;15.1;13.5
66206;BME280;53009;52.490;4.976;2022-09-09T05:36:09;100700;;;15.1;13.5
66206;BME280;53009;52.490;4.976;2022-09-09T05:39:14;100700;;;15.1;13.5
66206;BME280;53009;52.490;4.976;2022-09-09T05:44:14;100700;;;15.2;13.5
66206;BME280;53009;52.490;4.976;2022-09-09T05:45:48;100700;;;15.2;13.5
66206;BME280;53009;52.490;4.976;2022-09-09T05:47:51;100700;;;15.2;13.4
66206;BME280;53009;52.490;4.976;2022-09-09T05:48:56;100700;;;15.2;13.5
66206;BME280;53009;52.490;4.976;2022-09-09T05:53:14;100700;;;15.3;13.4
66206;BME280;53009;52.490;4.976;2022-09-09T05:58:14;100700;;;15.3;13.4
66206;BME280;53009;52.490;4.976;2022-09-09T05:59:08;100700;;;15.3;13.4
66206;BME280;53009;52.490;4.976;2022-09-09T06:00:59;100700;;;15.3;13.4
66206;BME280;53009;52.490;4.976;2022-09-09T06:05:58;100700;;;15.3;13.4
66206;BME280;53009;52.490;4.976;2022-09-09T06:10:16;100700;;;15.3;13.5
66206;BME280;53009;52.490;4.976;2022-09-09T06:11:09;100700;;;15.3;13.4
66206;BME280;53009;52.490;4.976;2022-09-09T06:16:13;100700;;;15.3;13.5
66206;BME280;53009;52.490;4.976;2022-09-09T06:19:44;100700;;;15.4;13.5
66206;BME280;53009;52.490;4.976;2022-09-09T06:24:03;100700;;;15.6;13.5
66206;BME280;53009;52.490;4.976;2022-09-09T06:27:35;100700;;;15.7;13.4
66206;BME280;53009;52.490;4.976;2022-09-09T06:30:33;100700;;;15.7;13.2
66206;BME280;53009;52.490;4.976;2022-09-09T06:31:39;100700;;;15.8;13.1
66206;BME280;53009;52.490;4.976;2022-09-09T06:32:55;100700;;;15.8;13.1
66206;BME280;53009;52.490;4.976;2022-09-09T06:34:07;100700;;;15.8;13
66206;BME280;53009;52.490;4.976;2022-09-09T06:35:13;100700;;;15.9;13
66206;BME280;53009;52.490;4.976;2022-09-09T06:36:12;100700;;;15.9;13
66206;BME280;53009;52.490;4.976;2022-09-09T06:38:21;100700;;;15.9;12.9
66206;BME280;53009;52.490;4.976;2022-09-09T06:40:31;100700;;;16;12.9
66206;BME280;53009;52.490;4.976;2022-09-09T06:41:14;100700;;;16;13
66206;BME280;53009;52.490;4.976;2022-09-09T06:42:43;100700;;;16.1;12.9
66206;BME280;53009;52.490;4.976;2022-09-09T06:46:45;100700;;;16.2;12.6
66206;BME280;53009;52.490;4.976;2022-09-09T06:48:10;100700;;;16.2;12.4
66206;BME280;53009;52.490;4.976;2022-09-09T06:49:56;100700;;;16.2;12.5
66206;BME280;53009;52.490;4.976;2022-09-09T06:53:40;100700;;;16.2;12.5
66206;BME280;53009;52.490;4.976;2022-09-09T06:57:36;100700;;;16.2;12.2
66206;BME280;53009;52.490;4.976;2022-09-09T06:59:54;100700;;;16.2;12.1
66206;BME280;53009;52.490;4.976;2022-09-09T07:01:02;100700;;;16.2;12.3
66206;BME280;53009;52.490;4.976;2022-09-09T07:01:50;100700;;;16.3;12.3
66206;BME280;53009;52.490;4.976;2022-09-09T07:03:12;100700;;;16.4;12.2
66206;BME280;53009;52.490;4.976;2022-09-09T07:04:10;100700;;;16.4;12
66206;BME280;53009;52.490;4.976;2022-09-09T07:06:13;100700;;;16.4;11.9
66206;BME280;53009;52.490;4.976;2022-09-09T07:07:10;100700;;;16.5;11.9
66206;BME280;53009;52.490;4.976;2022-09-09T07:08:08;100700;;;16.5;12
66206;BME280;53009;52.490;4.976;2022-09-09T07:12:10;100700;;;16.6;11.7
66206;BME280;53009;52.490;4.976;2022-09-09T07:13:09;100700;;;16.6;11.3
66206;BME280;53009;52.490;4.976;2022-09-09T07:18:09;100700;;;16.9;11
66206;BME280;53009;52.490;4.976;2022-09-09T07:21:19;100700;;;17.1;10.7
66206;BME280;53009;52.490;4.976;2022-09-09T07:24:22;100700;;;17.2;10.5
66206;BME280;53009;52.490;4.976;2022-09-09T07:27:55;100700;;;17.2;10.5
66206;BME280;53009;52.490;4.976;2022-09-09T07:32:55;100700;;;17.1;10.1
66206;BME280;53009;52.490;4.976;2022-09-09T07:34:53;100700;;;16.9;10.1
66206;BME280;53009;52.490;4.976;2022-09-09T07:38:06;100700;;;16.7;10.4
66206;BME280;53009;52.490;4.976;2022-09-09T07:43:25;100700;;;16.7;10.6
66206;BME280;53009;52.490;4.976;2022-09-09T07:45:33;100700;;;16.9;10.5
66206;BME280;53009;52.490;4.976;2022-09-09T07:46:38;100700;;;16.9;10.4
66206;BME280;53009;52.490;4.976;2022-09-09T07:48:48;100700;;;16.9;10.3
66206;BME280;53009;52.490;4.976;2022-09-09T07:53:47;100700;;;16.9;10.4
66206;BME280;53009;52.490;4.976;2022-09-09T07:54:10;100700;;;16.9;10.5
66206;BME280;53009;52.490;4.976;2022-09-09T07:59:09;100700;;;17.1;10.3
66206;BME280;53009;52.490;4.976;2022-09-09T08:01:48;100700;;;17.2;10.2
66206;BME280;53009;52.490;4.976;2022-09-09T08:06:48;100700;;;17.3;10.2
66206;BME280;53009;52.490;4.976;2022-09-09T08:09:26;100700;;;17.4;9.8
66206;BME280;53009;52.490;4.976;2022-09-09T08:10:39;100700;;;17.4;9.8
66206;BME280;53009;52.490;4.976;2022-09-09T08:12:08;100700;;;17.4;9.5
66206;BME280;53009;52.490;4.976;2022-09-09T08:13:08;100700;;;17.4;9.6
66206;BME280;53009;52.490;4.976;2022-09-09T08:16:23;100700;;;17.4;9.6
66206;BME280;53009;52.490;4.976;2022-09-09T08:17:20;100700;;;17.4;9.7
66206;BME280;53009;52.490;4.976;2022-09-09T08:18:18;100700;;;17.4;9.5
66206;BME280;53009;52.490;4.976;2022-09-09T08:19:34;100700;;;17.3;9.7
66206;BME280;53009;52.490;4.976;2022-09-09T08:24:34;100700;;;17.3;9.7
66206;BME280;53009;52.490;4.976;2022-09-09T08:28:02;100700;;;17.4;9.8
66206;BME280;53009;52.490;4.976;2022-09-09T08:29:09;100700;;;17.3;9.6
66206;BME280;53009;52.490;4.976;2022-09-09T08:30:08;100700;;;17.3;9.6
66206;BME280;53009;52.490;4.976;2022-09-09T08:32:08;100700;;;17.3;9.7
66206;BME280;53009;52.490;4.976;2022-09-09T08:33:23;100700;;;17.3;9.6
66206;BME280;53009;52.490;4.976;2022-09-09T08:34:21;100700;;;17.3;9.6
66206;BME280;53009;52.490;4.976;2022-09-09T08:37:27;100700;;;17.3;9.7
66206;BME280;53009;52.490;4.976;2022-09-09T08:38:33;100700;;;17.3;9.6
66206;BME280;53009;52.490;4.976;2022-09-09T08:39:31;100700;;;17.3;9.6
66206;BME280;53009;52.490;4.976;2022-09-09T08:41:45;100700;;;17.3;9.6
66206;BME280;53009;52.490;4.976;2022-09-09T08:44:52;100700;;;17.3;9.7
66206;BME280;53009;52.490;4.976;2022-09-09T08:49:17;100700;;;17.4;9.4
66206;BME280;53009;52.490;4.976;2022-09-09T08:50:21;100700;;;17.4;9.6
66206;BME280;53009;52.490;4.976;2022-09-09T08:53:19;100700;;;17.4;9.6
66206;BME280;53009;52.490;4.976;2022-09-09T08:55:29;100700;;;17.4;9.5
66206;BME280;53009;52.490;4.976;2022-09-09T08:57:30;100700;;;17.3;9.7
66206;BME280;53009;52.490;4.976;2022-09-09T08:58:13;100700;;;17.3;9.6
66206;BME280;53009;52.490;4.976;2022-09-09T08:59:58;100700;;;17.3;9.6
66206;BME280;53009;52.490;4.976;2022-09-09T09:02:58;100700;;;17.3;9.6
66206;BME280;53009;52.490;4.976;2022-09-09T09:04:03;100700;;;17.3;9.5
66206;BME280;53009;52.490;4.976;2022-09-09T09:05:04;100700;;;17.3;9.8
66206;BME280;53009;52.490;4.976;2022-09-09T09:06:09;100700;;;17.3;9.6
66206;BME280;53009;52.490;4.976;2022-09-09T09:11:06;100700;;;17.3;9.8
66206;BME280;53009;52.490;4.976;2022-09-09T09:13:06;100700;;;17.4;9.6
66206;BME280;53009;52.490;4.976;2022-09-09T09:16:20;100700;;;17.6;9.3
66206;BME280;53009;52.490;4.976;2022-09-09T09:17:10;100700;;;17.7;9.5
66206;BME280;53009;52.490;4.976;2022-09-09T09:19:29;100700;;;17.7;9.1
66206;BME280;53009;52.490;4.976;2022-09-09T09:20:28;100700;;;17.8;8.9
66206;BME280;53009;52.490;4.976;2022-09-09T09:25:27;100700;;;17.8;8.4
66206;BME280;53009;52.490;4.976;2022-09-09T09:27:50;100700;;;17.7;8.7
66206;BME280;53009;52.490;4.976;2022-09-09T09:32:50;100700;;;17.5;8.7
66206;BME280;53009;52.490;4.976;2022-09-09T09:37:49;100700;;;17.6;8.7
66206;BME280;53009;52.490;4.976;2022-09-09T09:42:49;100700;;;17.7;8.8
66206;BME280;53009;52.490;4.976;2022-09-09T09:47:57;100700;;;17.6;8.8
66206;BME280;53009;52.490;4.976;2022-09-09T09:52:54;100700;;;17.5;9
66206;BME280;53009;52.490;4.976;2022-09-09T09:57:49;100700;;;17.5;8.9
66206;BME280;53009;52.490;4.976;2022-09-09T10:02:49;100700;;;17.6;9
66206;BME280;53009;52.490;4.976;2022-09-09T10:07:59;100700;;;17.7;8.8
66206;BME280;53009;52.490;4.976;2022-09-09T10:12:53;100700;;;17.9;8.6
66206;BME280;53009;52.490;4.976;2022-09-09T10:17:53;100700;;;18.1;8.2
66206;BME280;53009;52.490;4.976;2022-09-09T10:22:50;100700;;;18.1;7.9
66206;BME280;53009;52.490;4.976;2022-09-09T10:27:53;100700;;;18.3;7.9
66206;BME280;53009;52.490;4.976;2022-09-09T10:32:49;100700;;;18.4;8
66206;BME280;53009;52.490;4.976;2022-09-09T10:37:56;100700;;;18.6;7.5
66206;BME280;53009;52.490;4.976;2022-09-09T10:42:49;100700;;;18.5;7.4
66206;BME280;53009;52.490;4.976;2022-09-09T10:47:52;100700;;;18.4;7.9
66206;BME280;53009;52.490;4.976;2022-09-09T10:52:50;100700;;;18.3;7.3
66206;BME280;53009;52.490;4.976;2022-09-09T10:57:49;100700;;;18.3;7.6
66206;BME280;53009;52.490;4.976;2022-09-09T11:02:50;100700;;;18.5;7.7
66206;BME280;53009;52.490;4.976;2022-09-09T11:07:51;100700;;;18.9;7
66206;BME280;53009;52.490;4.976;2022-09-09T11:12:49;100700;;;19.3;6.6
66206;BME280;53009;52.490;4.976;2022-09-09T11:17:50;100700;;;19.5;6.4
66206;BME280;53009;52.490;4.976;2022-09-09T11:22:50;100700;;;19.3;6.2
66206;BME280;53009;52.490;4.976;2022-09-09T11:27:54;100700;;;19.4;6.1
66206;BME280;53009;52.490;4.976;2022-09-09T11:32:56;100700;;;19.6;6.1
66206;BME280;53009;52.490;4.976;2022-09-09T11:38:02;100700;;;19.5;5.7
66206;BME280;53009;52.490;4.976;2022-09-09T11:42:49;100700;;;19.4;5.9
66206;BME280;53009;52.490;4.976;2022-09-09T11:47:51;100700;;;19.4;5.8
66206;BME280;53009;52.490;4.976;2022-09-09T11:52:49;100700;;;19;5.9
66206;BME280;53009;52.490;4.976;2022-09-09T11:57:56;100700;;;18.8;6.5
66206;BME280;53009;52.490;4.976;2022-09-09T12:02:49;100700;;;19.4;6.7
66206;BME280;53009;52.490;4.976;2022-09-09T12:07:50;100700;;;19.5;6
66206;BME280;53009;52.490;4.976;2022-09-09T12:12:49;100700;;;19.3;6.2
66206;BME280;53009;52.490;4.976;2022-09-09T12:17:49;100700;;;19.1;6.4
66206;BME280;53009;52.490;4.976;2022-09-09T12:22:55;100700;;;19;6.6
66206;BME280;53009;52.490;4.976;2022-09-09T12:27:54;100700;;;19.3;6.8
66206;BME280;53009;52.490;4.976;2022-09-09T12:32:58;100700;;;19.5;6.1
66206;BME280;53009;52.490;4.976;2022-09-09T12:37:50;100700;;;19.9;5.5
66206;BME280;53009;52.490;4.976;2022-09-09T12:42:49;100700;;;20.2;5.5
66206;BME280;53009;52.490;4.976;2022-09-09T12:47:50;100700;;;20.3;4.8
66206;BME280;53009;52.490;4.976;2022-09-09T12:52:49;100700;;;20.1;5
66206;BME280;53009;52.490;4.976;2022-09-09T12:57:49;100700;;;19.4;5.6
66206;BME280;53009;52.490;4.976;2022-09-09T13:02:50;100700;;;19.4;6.2
66206;BME280;53009;52.490;4.976;2022-09-09T13:07:49;100700;;;19.6;6.2
66206;BME280;53009;52.490;4.976;2022-09-09T13:12:49;100700;;;19.5;6.1
66206;BME280;53009;52.490;4.976;2022-09-09T13:17:51;100700;;;19.4;6.1
66206;BME280;53009;52.490;4.976;2022-09-09T13:22:50;100700;;;19.4;6.5
66206;BME280;53009;52.490;4.976;2022-09-09T13:27:51;100700;;;19.7;6.4
66206;BME280;53009;52.490;4.976;2022-09-09T13:33:18;100700;;;20;5.3
66206;BME280;53009;52.490;4.976;2022-09-09T13:37:49;100700;;;20.1;5.6
66206;BME280;53009;52.490;4.976;2022-09-09T13:42:51;100700;;;19.9;5.4
66206;BME280;53009;52.490;4.976;2022-09-09T13:47:49;100700;;;20;5.7
66206;BME280;53009;52.490;4.976;2022-09-09T13:52:49;100700;;;19.9;5.6
66206;BME280;53009;52.490;4.976;2022-09-09T13:57:50;100700;;;19.7;5.7
66206;BME280;53009;52.490;4.976;2022-09-09T14:02:49;100700;;;19.8;5.8
66206;BME280;53009;52.490;4.976;2022-09-09T14:07:49;100700;;;19.6;6.1
66206;BME280;53009;52.490;4.976;2022-09-09T14:12:49;100700;;;19.7;6.1
66206;BME280;53009;52.490;4.976;2022-09-09T14:17:49;100700;;;20;6
66206;BME280;53009;52.490;4.976;2022-09-09T14:22:49;100700;;;20.1;5.3
66206;BME280;53009;52.490;4.976;2022-09-09T14:27:49;100700;;;20;5.3
66206;BME280;53009;52.490;4.976;2022-09-09T14:32:49;100700;;;20.4;5.1
66206;BME280;53009;52.490;4.976;2022-09-09T14:37:49;100700;;;20.7;4.9
66206;BME280;53009;52.490;4.976;2022-09-09T14:42:49;100700;;;20.8;4.1
66206;BME280;53009;52.490;4.976;2022-09-09T14:47:49;100700;;;20.6;4.1
66206;BME280;53009;52.490;4.976;2022-09-09T14:52:49;100700;;;20.3;4.5
66206;BME280;53009;52.490;4.976;2022-09-09T14:57:49;100700;;;20;5.1
66206;BME280;53009;52.490;4.976;2022-09-09T15:01:43;100700;;;19.8;5.4
66206;BME280;53009;52.490;4.976;2022-09-09T15:02:58;100700;;;19.8;5.4
66206;BME280;53009;52.490;4.976;2022-09-09T15:04:51;100700;;;19.8;5.5
66206;BME280;53009;52.490;4.976;2022-09-09T15:05:56;100700;;;19.8;5.5
66206;BME280;53009;52.490;4.976;2022-09-09T15:07:12;100700;;;19.8;5.9
66206;BME280;53009;52.490;4.976;2022-09-09T15:08:08;100700;;;19.7;5.5
66206;BME280;53009;52.490;4.976;2022-09-09T15:10:08;100700;;;19.8;5.7
66206;BME280;53009;52.490;4.976;2022-09-09T15:13:35;100700;;;19.8;6
66206;BME280;53009;52.490;4.976;2022-09-09T15:14:08;100700;;;19.8;6
66206;BME280;53009;52.490;4.976;2022-09-09T15:17:19;100700;;;19.8;6
66206;BME280;53009;52.490;4.976;2022-09-09T15:21:30;100700;;;19.8;6
66206;BME280;53009;52.490;4.976;2022-09-09T15:26:30;100700;;;19.8;6.3
66206;BME280;53009;52.490;4.976;2022-09-09T15:27:08;100700;;;19.8;6.3
66206;BME280;53009;52.490;4.976;2022-09-09T15:29:41;100700;;;19.8;6.3
66206;BME280;53009;52.490;4.976;2022-09-09T15:30:18;100700;;;19.8;6.2
66206;BME280;53009;52.490;4.976;2022-09-09T15:31:40;100700;;;19.8;6.3
66206;BME280;53009;52.490;4.976;2022-09-09T15:33:59;100700;;;19.7;6.4
66206;BME280;53009;52.490;4.976;2022-09-09T15:36:00;100700;;;19.6;6.4
66206;BME280;53009;52.490;4.976;2022-09-09T15:38:10;100700;;;19.5;6.2
66206;BME280;53009;52.490;4.976;2022-09-09T15:39:23;100700;;;19.6;6.4
66206;BME280;53009;52.490;4.976;2022-09-09T15:40:38;100700;;;19.5;6.4
66206;BME280;53009;52.490;4.976;2022-09-09T15:43:28;100700;;;19.5;6.5
66206;BME280;53009;52.490;4.976;2022-09-09T15:45:30;100700;;;19.4;6.5
66206;BME280;53009;52.490;4.976;2022-09-09T15:47:48;100700;;;19.4;6.4
66206;BME280;53009;52.490;4.976;2022-09-09T15:50:17;100700;;;19.4;6.4
66206;BME280;53009;52.490;4.976;2022-09-09T15:55:17;100700;;;19.3;6.2
66206;BME280;53009;52.490;4.976;2022-09-09T16:00:17;100700;;;19.1;6.5
66206;BME280;53009;52.490;4.976;2022-09-09T16:05:17;100700;;;19;6.7
66206;BME280;53009;52.490;4.976;2022-09-09T16:10:17;100700;;;18.9;7.4
66206;BME280;53009;52.490;4.976;2022-09-09T16:15:17;100700;;;18.7;7.8
66206;BME280;53009;52.490;4.976;2022-09-09T16:20:17;100700;;;18.7;7.8
66206;BME280;53009;52.490;4.976;2022-09-09T16:25:17;100700;;;18.7;8.2
66206;BME280;53009;52.490;4.976;2022-09-09T16:30:17;100700;;;18.7;8.2
66206;BME280;53009;52.490;4.976;2022-09-09T16:35:17;100700;;;18.7;8.3
66206;BME280;53009;52.490;4.976;2022-09-09T16:40:16;100700;;;18.7;8.4
66206;BME280;53009;52.490;4.976;2022-09-09T16:45:17;100700;;;18.8;8.3
66206;BME280;53009;52.490;4.976;2022-09-09T16:50:17;100700;;;18.8;8.3
66206;BME280;53009;52.490;4.976;2022-09-09T16:55:17;100700;;;18.8;8.3
66206;BME280;53009;52.490;4.976;2022-09-09T17:00:01;100700;;;18.8;8.1
66206;BME280;53009;52.490;4.976;2022-09-09T17:04:37;100700;;;18.8;8.3
66206;BME280;53009;52.490;4.976;2022-09-09T17:06:01;100700;;;18.8;8.4
66206;BME280;53009;52.490;4.976;2022-09-09T17:07:14;100700;;;18.8;8.2
66206;BME280;53009;52.490;4.976;2022-09-09T17:08:13;100700;;;18.7;8.1
66206;BME280;53009;52.490;4.976;2022-09-09T17:13:13;100700;;;18.7;8.3
66206;BME280;53009;52.490;4.976;2022-09-09T17:14:23;100700;;;18.7;8.3
66206;BME280;53009;52.490;4.976;2022-09-09T17:17:45;100700;;;18.7;8.4
66206;BME280;53009;52.490;4.976;2022-09-09T17:18:50;100700;;;18.7;8.4
66206;BME280;53009;52.490;4.976;2022-09-09T17:21:11;100700;;;18.7;8.4
66206;BME280;53009;52.490;4.976;2022-09-09T17:22:15;100700;;;18.7;8.3
66206;BME280;53009;52.490;4.976;2022-09-09T17:23:21;100700;;;18.7;8.4
66206;BME280;53009;52.490;4.976;2022-09-09T17:26:10;100700;;;18.7;8.4
66206;BME280;53009;52.490;4.976;2022-09-09T17:27:08;100700;;;18.7;8.3
66206;BME280;53009;52.490;4.976;2022-09-09T17:28:08;100700;;;18.7;8.4
66206;BME280;53009;52.490;4.976;2022-09-09T17:31:46;100700;;;18.6;8.7
66206;BME280;53009;52.490;4.976;2022-09-09T17:33:33;100800;;;18.6;8.4
66206;BME280;53009;52.490;4.976;2022-09-09T17:35:35;100800;;;18.6;8.6
66206;BME280;53009;52.490;4.976;2022-09-09T17:36:24;100800;;;18.5;8.5
66206;BME280;53009;52.490;4.976;2022-09-09T17:41:24;100800;;;18.6;8.7
66206;BME280;53009;52.490;4.976;2022-09-09T17:42:08;100800;;;18.5;8.7
66206;BME280;53009;52.490;4.976;2022-09-09T17:43:09;100800;;;18.5;8.9
66206;BME280;53009;52.490;4.976;2022-09-09T17:45:03;100800;;;18.5;8.8
66206;BME280;53009;52.490;4.976;2022-09-09T17:50:09;100800;;;18.4;8.8
66206;BME280;53009;52.490;4.976;2022-09-09T17:51:24;100800;;;18.4;8.9
66206;BME280;53009;52.490;4.976;2022-09-09T17:52:20;100800;;;18.4;8.9
66206;BME280;53009;52.490;4.976;2022-09-09T17:54:39;100800;;;18.3;9
66206;BME280;53009;52.490;4.976;2022-09-09T17:55:27;100800;;;18.3;9
66206;BME280;53009;52.490;4.976;2022-09-09T17:57:55;100800;;;18.3;9.1
66206;BME280;53009;52.490;4.976;2022-09-09T17:58:38;100800;;;18.3;9.1
66206;BME280;53009;52.490;4.976;2022-09-09T18:02:00;100800;;;18.2;9
66206;BME280;53009;52.490;4.976;2022-09-09T18:06:27;100800;;;18.1;9.1
66206;BME280;53009;52.490;4.976;2022-09-09T18:11:27;100800;;;18;9.1
66206;BME280;53009;52.490;4.976;2022-09-09T18:15:00;100800;;;18;9.3
66206;BME280;53009;52.490;4.976;2022-09-09T18:17:02;100800;;;18;9.3
66206;BME280;53009;52.490;4.976;2022-09-09T18:17:28;100800;;;17.9;9.4
66206;BME280;53009;52.490;4.976;2022-09-09T18:20:42;100800;;;17.9;9.4
66206;BME280;53009;52.490;4.976;2022-09-09T18:22:52;100800;;;17.9;9.6
66206;BME280;53009;52.490;4.976;2022-09-09T18:23:19;100800;;;17.9;9.6
66206;BME280;53009;52.490;4.976;2022-09-09T18:24:25;100800;;;17.8;9.4
66206;BME280;53009;52.490;4.976;2022-09-09T18:29:25;100800;;;17.9;9.7
66206;BME280;53009;52.490;4.976;2022-09-09T18:32:35;100800;;;17.8;9.4
66206;BME280;53009;52.490;4.976;2022-09-09T18:33:33;100800;;;17.8;9.6
66206;BME280;53009;52.490;4.976;2022-09-09T18:35:35;100800;;;17.8;9.7
66206;BME280;53009;52.490;4.976;2022-09-09T18:36:34;100800;;;17.8;9.7
66206;BME280;53009;52.490;4.976;2022-09-09T18:38:51;100800;;;17.8;9.5
66206;BME280;53009;52.490;4.976;2022-09-09T18:42:05;100800;;;17.8;9.7
66206;BME280;53009;52.490;4.976;2022-09-09T18:44:15;100800;;;17.8;9.7